Terminal Aerodrome Forecast
Issued by NWS Dodge City, KS

Home | Current Version | Previous Version | Graphics & Text | Print | Product List | Glossary Off
Versions: 1 2 3 4 5 6 7 8 9 10 11 12 13 14 15 16 17 18 19 20 21 22 23 24 25 26 27 28 29 30 31 32 33 34 35 36 37 38

000
FTUS43 KDDC 041239 AAA
TAFDDC
TAF AMD
KDDC 041239Z 0413/0512 03015KT 5SM -SN OVC040
      TEMPO 0413/0415 2SM -SN BR OVC015
     FM041500 03015G22KT 5SM -SN OVC020
     FM042000 01011KT P6SM BKN020
     FM042200 01008KT P6SM SCT020 BKN050=

USA.gov is the U.S. government's official web portal to all federal, state and local government web resources and services.